createdAt,value
2018-11-25T00:01:44.586Z,132.87
2018-11-25T00:04:13.858Z,137.07
2018-11-25T00:06:43.199Z,127.77
2018-11-25T00:09:12.916Z,132.90
2018-11-25T00:11:43.297Z,136.73
2018-11-25T00:14:12.838Z,126.73
2018-11-25T00:16:42.407Z,122.47
2018-11-25T00:19:11.969Z,139.00
2018-11-25T00:21:41.500Z,116.77
2018-11-25T00:24:11.025Z,126.07
2018-11-25T00:26:40.545Z,119.43
2018-11-25T00:29:10.070Z,113.33
2018-11-25T00:31:39.617Z,123.77
2018-11-25T00:34:09.198Z,133.77
2018-11-25T00:36:38.738Z,130.70
2018-11-25T00:39:09.523Z,132.73
2018-11-25T00:41:39.045Z,135.07
2018-11-25T00:44:08.588Z,135.70
2018-11-25T00:46:38.127Z,149.93
2018-11-25T00:49:07.681Z,131.30
2018-11-25T00:51:37.210Z,139.23
2018-11-25T00:54:06.766Z,142.43
2018-11-25T00:56:36.333Z,140.63
2018-11-25T00:59:06.298Z,166.53
2018-11-25T01:01:35.845Z,135.90
2018-11-25T01:04:05.505Z,120.50
2018-11-25T01:06:35.034Z,137.43
2018-11-25T01:09:07.173Z,139.87
2018-11-25T01:11:37.017Z,136.17
2018-11-25T01:14:06.674Z,138.57
2018-11-25T01:16:36.212Z,138.27
2018-11-25T01:19:06.158Z,140.77
2018-11-25T01:21:35.698Z,145.63
2018-11-25T01:24:05.521Z,148.13
2018-11-25T01:26:35.057Z,156.37
2018-11-25T01:29:04.586Z,154.80
2018-11-25T01:31:34.127Z,151.23
2018-11-25T01:34:03.653Z,136.60
2018-11-25T01:36:33.242Z,150.10
2018-11-25T01:39:02.757Z,152.40
2018-11-25T01:41:32.289Z,153.33
2018-11-25T01:44:01.469Z,163.43
2018-11-25T01:46:30.934Z,159.30
2018-11-25T01:49:00.535Z,172.83
2018-11-25T01:51:30.066Z,165.50
2018-11-25T01:53:59.590Z,170.47
2018-11-25T01:56:29.153Z,178.83
2018-11-25T01:58:58.737Z,169.83
2018-11-25T02:01:28.273Z,181.00
2018-11-25T02:03:57.841Z,176.20
2018-11-25T02:06:27.400Z,160.53
2018-11-25T02:08:56.921Z,166.97
2018-11-25T02:11:26.489Z,167.03
2018-11-25T02:13:56.033Z,168.67
2018-11-25T02:16:25.588Z,168.20
2018-11-25T02:18:55.114Z,156.47
2018-11-25T02:21:24.654Z,160.37
2018-11-25T02:23:54.225Z,164.00
2018-11-25T02:26:23.973Z,161.00
2018-11-25T02:28:53.525Z,162.33
2018-11-25T02:31:23.106Z,168.53
2018-11-25T02:33:53.177Z,154.43
2018-11-25T02:36:22.733Z,166.80
2018-11-25T02:38:52.273Z,168.90
2018-11-25T02:41:21.805Z,159.40
2018-11-25T02:43:51.364Z,176.97
2018-11-25T02:46:35.493Z,159.33
2018-11-25T02:49:05.441Z,150.87
2018-11-25T02:51:34.985Z,166.97
2018-11-25T02:54:04.929Z,159.87
2018-11-25T02:56:34.457Z,155.97
2018-11-25T02:59:03.987Z,168.70
2018-11-25T03:01:33.562Z,186.10
2018-11-25T03:04:02.748Z,175.43
2018-11-25T03:06:32.195Z,164.20
2018-11-25T03:09:01.769Z,162.37
2018-11-25T03:11:31.057Z,172.33
2018-11-25T03:14:00.577Z,157.60
2018-11-25T03:16:30.110Z,172.73
2018-11-25T03:18:59.630Z,180.20
2018-11-25T03:21:29.214Z,181.80
2018-11-25T03:23:58.740Z,192.43
2018-11-25T03:26:28.292Z,170.10
2018-11-25T03:28:57.850Z,166.27
2018-11-25T03:31:27.393Z,172.00
2018-11-25T03:33:56.929Z,172.40
2018-11-25T03:36:26.497Z,170.87
2018-11-25T03:38:56.053Z,183.60
2018-11-25T03:41:25.596Z,179.23
2018-11-25T03:43:55.131Z,183.07
2018-11-25T03:46:24.661Z,173.40
2018-11-25T03:48:54.197Z,172.77
2018-11-25T03:51:23.733Z,181.47
2018-11-25T03:53:53.271Z,198.77
2018-11-25T03:56:22.827Z,183.70
2018-11-25T03:58:52.360Z,178.67
2018-11-25T04:01:21.933Z,193.00
2018-11-25T04:03:51.475Z,214.00
2018-11-25T04:06:21.010Z,297.43
2018-11-25T04:08:50.188Z,201.27
2018-11-25T04:11:19.686Z,189.50
2018-11-25T04:13:49.177Z,185.00
2018-11-25T04:16:18.714Z,189.63
2018-11-25T04:18:48.046Z,205.53
2018-11-25T04:21:17.565Z,202.33
2018-11-25T04:23:47.086Z,235.37
2018-11-25T04:26:16.606Z,226.97
2018-11-25T04:28:46.178Z,227.50
2018-11-25T04:31:15.701Z,224.03
2018-11-25T04:33:45.226Z,250.47
2018-11-25T04:36:14.780Z,241.87
2018-11-25T04:38:44.314Z,237.33
2018-11-25T04:41:13.858Z,251.53
2018-11-25T04:43:43.393Z,242.13
2018-11-25T04:46:12.918Z,226.93
2018-11-25T04:48:42.453Z,255.57
2018-11-25T04:51:12.014Z,262.13
2018-11-25T04:53:41.541Z,279.80
2018-11-25T04:56:11.080Z,264.60
2018-11-25T04:58:40.635Z,261.87
2018-11-25T05:01:10.191Z,270.23
2018-11-25T05:03:39.717Z,248.77
2018-11-25T05:06:09.266Z,284.43
2018-11-25T05:08:38.787Z,276.90
2018-11-25T05:11:08.325Z,297.17
2018-11-25T05:13:37.861Z,296.47
2018-11-25T05:16:07.389Z,293.67
2018-11-25T05:18:36.945Z,293.70
2018-11-25T05:21:06.137Z,285.57
2018-11-25T05:23:35.569Z,305.67
2018-11-25T05:26:05.330Z,311.33
2018-11-25T05:28:34.866Z,307.23
2018-11-25T05:31:04.439Z,277.40
2018-11-25T05:33:33.998Z,283.97
2018-11-25T05:36:03.561Z,286.67
2018-11-25T05:38:33.136Z,309.47
2018-11-25T05:41:03.894Z,340.00
2018-11-25T05:43:33.432Z,286.37
2018-11-25T05:46:02.588Z,277.10
2018-11-25T05:48:32.034Z,317.43
2018-11-25T05:51:01.602Z,311.27
2018-11-25T05:53:31.133Z,282.30
2018-11-25T05:56:00.658Z,297.40
2018-11-25T05:58:30.217Z,309.43
2018-11-25T06:00:59.787Z,287.27
2018-11-25T06:03:29.297Z,276.63
2018-11-25T06:05:58.886Z,263.27
2018-11-25T06:08:28.642Z,255.30
2018-11-25T06:10:58.173Z,307.40
2018-11-25T06:13:28.407Z,293.43
2018-11-25T06:15:57.944Z,287.40
2018-11-25T06:18:27.505Z,323.90
2018-11-25T06:20:56.814Z,283.00
2018-11-25T06:23:26.360Z,293.93
2018-11-25T06:25:55.893Z,263.70
2018-11-25T06:28:25.471Z,313.90
2018-11-25T06:30:55.186Z,275.40
2018-11-25T06:33:24.825Z,284.63
2018-11-25T06:35:54.409Z,238.47
2018-11-25T06:38:24.466Z,287.40
2018-11-25T06:40:54.038Z,273.70
2018-11-25T06:43:23.662Z,290.70
2018-11-25T06:45:52.826Z,284.70
2018-11-25T06:48:22.478Z,302.83
2018-11-25T06:50:52.093Z,290.60
2018-11-25T06:53:21.650Z,275.30
2018-11-25T06:55:51.305Z,291.37
2018-11-25T06:58:21.085Z,247.90
2018-11-25T07:00:50.661Z,276.73
2018-11-25T07:03:20.261Z,234.10
2018-11-25T07:05:49.449Z,241.30
2018-11-25T07:08:18.963Z,256.50
2018-11-25T07:10:48.513Z,260.60
2018-11-25T07:13:18.059Z,266.53
2018-11-25T07:15:47.637Z,272.63
2018-11-25T07:18:17.218Z,253.97
2018-11-25T07:20:46.757Z,253.67
2018-11-25T07:23:16.319Z,271.13
2018-11-25T07:25:45.869Z,292.50
2018-11-25T07:28:18.438Z,230.23
2018-11-25T07:30:45.003Z,240.87
2018-11-25T07:33:14.709Z,242.67
2018-11-25T07:35:44.261Z,223.20
2018-11-25T07:38:13.786Z,213.53
2018-11-25T07:40:43.345Z,186.17
2018-11-25T07:43:12.892Z,204.10
2018-11-25T07:45:42.503Z,209.87
2018-11-25T07:48:12.089Z,194.57
2018-11-25T07:50:42.022Z,192.77
2018-11-25T07:53:11.595Z,188.83
2018-11-25T07:55:41.148Z,185.00
2018-11-25T07:58:10.317Z,175.53
2018-11-25T08:00:39.791Z,152.70
2018-11-25T08:03:09.478Z,161.97
2018-11-25T08:05:39.050Z,140.43
2018-11-25T08:08:08.602Z,150.43
2018-11-25T08:10:38.230Z,147.50
2018-11-25T08:13:07.763Z,141.43
2018-11-25T08:15:37.293Z,133.00
2018-11-25T08:18:06.934Z,130.67
2018-11-25T08:20:36.509Z,142.67
2018-11-25T08:23:06.106Z,143.93
2018-11-25T08:25:35.389Z,129.63
2018-11-25T08:28:05.366Z,135.13
2018-11-25T08:30:35.094Z,132.10
2018-11-25T08:33:04.721Z,112.43
2018-11-25T08:35:34.998Z,127.13
2018-11-25T08:38:04.617Z,128.97
2018-11-25T08:40:34.166Z,139.17
2018-11-25T08:43:03.765Z,135.27
2018-11-25T08:45:33.363Z,129.40
2018-11-25T08:48:02.945Z,137.90
2018-11-25T08:50:32.478Z,124.30
2018-11-25T08:53:02.065Z,128.00
2018-11-25T08:55:31.643Z,119.30
2018-11-25T08:58:00.962Z,127.93
2018-11-25T09:00:30.505Z,133.63
2018-11-25T09:03:00.058Z,130.03
2018-11-25T09:05:29.724Z,135.20
2018-11-25T09:07:59.286Z,137.17
2018-11-25T09:10:28.881Z,132.67
2018-11-25T09:12:58.858Z,129.23
2018-11-25T09:15:29.738Z,129.70
2018-11-25T09:17:59.542Z,121.60
2018-11-25T09:20:29.106Z,120.53
2018-11-25T09:22:58.731Z,124.53
2018-11-25T09:25:31.186Z,120.97
2018-11-25T09:28:01.891Z,127.93
2018-11-25T09:30:31.610Z,141.00
2018-11-25T09:33:01.130Z,127.33
2018-11-25T09:35:30.570Z,135.07
2018-11-25T09:38:00.137Z,124.57
2018-11-25T09:40:29.726Z,126.53
2018-11-25T09:42:59.093Z,131.00
2018-11-25T09:45:28.661Z,126.33
2018-11-25T09:47:58.296Z,133.40
2018-11-25T09:50:27.860Z,129.33
2018-11-25T09:52:57.400Z,121.60
2018-11-25T09:55:26.985Z,125.07
2018-11-25T09:58:00.415Z,124.10
2018-11-25T10:00:31.257Z,117.63
2018-11-25T10:03:00.855Z,108.10
2018-11-25T10:05:30.442Z,113.87
2018-11-25T10:08:00.619Z,112.93
2018-11-25T10:10:30.193Z,110.87
2018-11-25T10:12:59.511Z,126.03
2018-11-25T10:15:29.783Z,103.57
2018-11-25T10:18:00.253Z,105.33
2018-11-25T10:20:30.377Z,96.77
2018-11-25T10:22:59.943Z,109.57
2018-11-25T10:25:29.523Z,113.97
2018-11-25T10:27:59.060Z,117.97
2018-11-25T10:30:30.453Z,118.57
2018-11-25T10:33:03.196Z,125.33
2018-11-25T10:35:32.793Z,122.47
2018-11-25T10:38:02.444Z,136.93
2018-11-25T10:40:31.999Z,130.47
2018-11-25T10:43:01.578Z,131.23
2018-11-25T10:45:31.134Z,137.57
2018-11-25T10:48:00.737Z,134.07
2018-11-25T10:50:30.173Z,132.10
2018-11-25T10:52:59.702Z,139.10
2018-11-25T10:55:29.457Z,166.60
2018-11-25T10:57:59.041Z,173.93
2018-11-25T11:00:37.191Z,128.60
2018-11-25T11:03:13.514Z,128.67
2018-11-25T11:05:48.869Z,147.00
2018-11-25T11:08:19.080Z,131.93
2018-11-25T11:10:48.716Z,133.33
2018-11-25T11:13:18.389Z,128.10
2018-11-25T11:15:48.005Z,127.83
2018-11-25T11:18:17.570Z,120.30
2018-11-25T11:20:47.141Z,113.77
2018-11-25T11:23:16.748Z,113.30
2018-11-25T11:25:46.864Z,112.60
2018-11-25T11:28:16.433Z,114.90
2018-11-25T11:30:46.010Z,101.13
2018-11-25T11:33:15.642Z,101.40
2018-11-25T11:37:59.494Z,105.60
2018-11-25T11:40:29.118Z,105.30
2018-11-25T11:42:58.546Z,117.07
2018-11-25T11:45:28.113Z,114.23
2018-11-25T11:47:57.950Z,104.53
2018-11-25T11:50:28.197Z,104.93
2018-11-25T11:52:57.396Z,108.73
2018-11-25T11:55:27.029Z,108.00
2018-11-25T11:57:56.675Z,96.60
2018-11-25T12:00:28.782Z,91.80
2018-11-25T12:02:58.865Z,96.70
2018-11-25T12:05:28.422Z,108.43
2018-11-25T12:07:57.848Z,107.63
2018-11-25T12:10:27.421Z,108.07
2018-11-25T12:12:57.147Z,106.37
2018-11-25T12:15:30.686Z,110.67
2018-11-25T12:17:56.745Z,110.73
2018-11-25T12:20:28.475Z,100.43
2018-11-25T12:22:58.656Z,111.37
2018-11-25T12:25:28.322Z,108.47
2018-11-25T12:27:57.500Z,110.67
2018-11-25T12:30:27.013Z,128.67
2018-11-25T12:32:56.598Z,126.37
2018-11-25T12:35:26.799Z,114.47
2018-11-25T12:37:56.353Z,106.00
2018-11-25T12:40:25.509Z,117.60
2018-11-25T12:42:56.200Z,115.97
2018-11-25T12:45:26.006Z,102.83
2018-11-25T12:47:55.817Z,107.93
2018-11-25T12:50:26.364Z,113.40
2018-11-25T12:52:56.127Z,107.87
2018-11-25T12:55:26.916Z,103.33
2018-11-25T12:57:57.214Z,104.07
2018-11-25T13:00:31.141Z,109.40
2018-11-25T13:03:00.695Z,129.87
2018-11-25T13:05:30.277Z,112.60
2018-11-25T13:07:59.853Z,122.97
2018-11-25T13:10:29.417Z,116.20
2018-11-25T13:12:58.632Z,132.90
2018-11-25T13:15:28.481Z,134.80
2018-11-25T13:17:58.035Z,133.97
2018-11-25T13:20:27.610Z,133.67
2018-11-25T13:22:57.529Z,127.97
2018-11-25T13:25:27.090Z,133.83
2018-11-25T13:27:56.295Z,139.17
2018-11-25T13:30:28.058Z,132.67
2018-11-25T13:32:59.803Z,139.50
2018-11-25T13:35:32.497Z,139.90
2018-11-25T13:38:02.136Z,151.77
2018-11-25T13:40:31.865Z,153.73
2018-11-25T13:43:01.486Z,145.97
2018-11-25T13:45:31.057Z,139.77
2018-11-25T13:48:00.631Z,142.47
2018-11-25T13:50:29.876Z,135.60
2018-11-25T13:52:59.348Z,129.73
2018-11-25T13:55:29.233Z,133.17
2018-11-25T13:57:58.353Z,132.03
2018-11-25T14:00:32.994Z,140.13
2018-11-25T14:03:03.302Z,141.47
2018-11-25T14:05:32.961Z,145.47
2018-11-25T14:08:02.510Z,140.33
2018-11-25T14:10:33.769Z,134.43
2018-11-25T14:13:03.322Z,142.73
2018-11-25T14:15:32.870Z,140.57
2018-11-25T14:18:02.439Z,128.80
2018-11-25T14:20:31.998Z,140.40
2018-11-25T14:23:01.223Z,135.50
2018-11-25T14:25:30.785Z,125.20
2018-11-25T14:28:01.819Z,125.53
2018-11-25T14:30:32.169Z,135.13
2018-11-25T14:33:01.714Z,133.70
2018-11-25T14:35:31.346Z,156.60
2018-11-25T14:38:00.541Z,153.03
2018-11-25T14:40:30.072Z,170.17
2018-11-25T14:42:59.242Z,151.97
2018-11-25T14:45:28.719Z,158.90
2018-11-25T14:47:58.267Z,139.17
2018-11-25T14:50:27.841Z,161.00
2018-11-25T14:52:57.393Z,156.50
2018-11-25T14:55:26.933Z,166.03
2018-11-25T14:57:56.502Z,157.37
2018-11-25T15:00:26.068Z,153.23
2018-11-25T15:03:00.064Z,175.20
2018-11-25T15:05:33.502Z,166.03
2018-11-25T15:08:03.102Z,170.07
2018-11-25T15:10:32.713Z,168.23
2018-11-25T15:13:02.279Z,182.20
2018-11-25T15:15:31.837Z,165.40
2018-11-25T15:18:01.430Z,177.10
2018-11-25T15:20:30.990Z,173.00
2018-11-25T15:23:02.474Z,180.30
2018-11-25T15:25:34.122Z,175.40
2018-11-25T15:28:03.762Z,173.37
2018-11-25T15:30:33.323Z,198.70
2018-11-25T15:33:02.873Z,199.33
2018-11-25T15:35:32.428Z,232.47
2018-11-25T15:38:01.992Z,228.00
2018-11-25T15:40:32.087Z,218.00
2018-11-25T15:43:01.653Z,198.70
2018-11-25T15:45:31.266Z,220.97
2018-11-25T15:48:01.625Z,194.03
2018-11-25T15:50:31.750Z,197.30
2018-11-25T15:53:00.916Z,211.07
2018-11-25T15:55:30.413Z,206.03
2018-11-25T15:57:59.750Z,216.17
2018-11-25T16:00:29.406Z,246.37
2018-11-25T16:02:59.627Z,212.80
2018-11-25T16:05:31.786Z,253.80
2018-11-25T16:08:00.996Z,228.00
2018-11-25T16:10:30.466Z,247.13
2018-11-25T16:13:00.118Z,277.87
2018-11-25T16:15:30.747Z,252.13
2018-11-25T16:18:01.403Z,241.77
2018-11-25T16:20:30.803Z,251.90
2018-11-25T16:23:01.254Z,208.70
2018-11-25T16:25:35.822Z,260.57
2018-11-25T16:28:27.830Z,213.47
2018-11-25T16:30:57.510Z,202.87
2018-11-25T16:33:27.170Z,215.97
2018-11-25T16:35:56.409Z,229.77
2018-11-25T16:38:25.866Z,204.80
2018-11-25T16:40:55.269Z,196.37
2018-11-25T16:43:26.573Z,216.67
2018-11-25T16:45:56.213Z,204.07
2018-11-25T16:48:25.756Z,205.63
2018-11-25T16:50:55.373Z,203.23
2018-11-25T16:53:24.965Z,207.60
2018-11-25T16:55:54.226Z,211.30
2018-11-25T16:58:23.382Z,254.00
2018-11-25T17:00:52.955Z,264.87
2018-11-25T17:03:22.592Z,243.37
2018-11-25T17:05:53.097Z,272.20
2018-11-25T17:08:27.246Z,283.27
2018-11-25T17:10:56.719Z,267.90
2018-11-25T17:13:25.881Z,268.00
2018-11-25T17:15:55.406Z,220.17
2018-11-25T17:18:24.596Z,211.87
2018-11-25T17:20:54.049Z,206.73
2018-11-25T17:23:23.613Z,185.30
2018-11-25T17:25:53.227Z,174.33
2018-11-25T17:28:22.425Z,161.07
2018-11-25T17:30:51.282Z,182.17
2018-11-25T17:33:21.802Z,173.33
2018-11-25T17:35:49.919Z,183.80
2018-11-25T17:38:19.123Z,171.63
2018-11-25T17:40:48.237Z,162.70
2018-11-25T17:43:20.727Z,201.13
2018-11-25T17:45:50.362Z,190.77
2018-11-25T17:48:19.575Z,164.27
2018-11-25T17:50:49.083Z,176.13
2018-11-25T17:53:20.917Z,154.07
2018-11-25T17:55:47.872Z,140.67
2018-11-25T17:58:17.447Z,162.13
2018-11-25T18:00:53.126Z,155.30
2018-11-25T18:03:25.050Z,146.77
2018-11-25T18:05:54.640Z,155.47
2018-11-25T18:08:23.891Z,150.93
2018-11-25T18:10:53.453Z,134.77
2018-11-25T18:13:24.480Z,157.10
2018-11-25T18:15:55.593Z,128.87
2018-11-25T18:18:41.260Z,135.80
2018-11-25T18:21:11.438Z,150.97
2018-11-25T18:23:40.624Z,160.20
2018-11-25T18:26:09.693Z,184.13
2018-11-25T18:28:39.238Z,165.70
2018-11-25T18:31:08.813Z,151.87
2018-11-25T18:33:38.362Z,167.43
2018-11-25T18:36:09.398Z,168.93
2018-11-25T18:38:39.030Z,175.27
2018-11-25T18:41:08.225Z,176.97
2018-11-25T18:43:37.746Z,190.27
2018-11-25T18:46:07.823Z,186.57
2018-11-25T18:48:39.790Z,197.70
2018-11-25T18:51:09.511Z,206.10
2018-11-25T18:53:38.787Z,204.60
2018-11-25T18:56:08.146Z,240.97
2018-11-25T18:58:37.610Z,246.30
2018-11-25T19:01:16.087Z,254.90
2018-11-25T19:03:45.674Z,256.73
2018-11-25T19:06:15.246Z,243.87
2018-11-25T19:08:44.425Z,270.80
2018-11-25T19:11:13.971Z,287.33
2018-11-25T19:13:44.022Z,234.27
2018-11-25T19:16:14.402Z,208.10
2018-11-25T19:18:44.074Z,214.37
2018-11-25T19:21:14.647Z,196.27
2018-11-25T19:23:45.045Z,204.40
2018-11-25T19:26:14.382Z,218.03
2018-11-25T19:28:43.551Z,230.70
2018-11-25T19:31:13.161Z,199.43
2018-11-25T19:33:43.046Z,208.23
2018-11-25T19:36:12.829Z,205.40
2018-11-25T19:38:42.466Z,212.10
2018-11-25T19:41:12.700Z,184.07
2018-11-25T19:43:42.666Z,203.60
2018-11-25T19:46:12.415Z,205.40
2018-11-25T19:48:42.595Z,208.00
2018-11-25T19:51:17.513Z,191.87
2018-11-25T19:53:42.449Z,209.57
2018-11-25T19:56:11.654Z,189.80
2018-11-25T19:58:41.175Z,220.80
2018-11-25T20:01:11.026Z,208.10
2018-11-25T20:03:40.502Z,191.30
2018-11-25T20:06:10.134Z,208.13
2018-11-25T20:08:39.329Z,185.23
2018-11-25T20:11:08.466Z,189.27
2018-11-25T20:13:38.085Z,205.73
2018-11-25T20:17:15.458Z,205.87
2018-11-25T20:19:45.246Z,220.20
2018-11-25T20:22:24.411Z,212.43
2018-11-25T20:24:54.383Z,211.00
2018-11-25T20:27:29.317Z,214.27
2018-11-25T20:29:58.908Z,233.33
2018-11-25T20:32:33.870Z,224.93
2018-11-25T20:35:03.759Z,241.93
2018-11-25T20:37:32.994Z,233.93
2018-11-25T20:40:02.593Z,211.97
2018-11-25T20:42:31.951Z,200.10
2018-11-25T20:45:01.642Z,210.90
2018-11-25T20:47:30.957Z,225.33
2018-11-25T20:50:00.426Z,208.60
2018-11-25T20:52:35.375Z,208.60
2018-11-25T20:55:05.766Z,217.93
2018-11-25T20:57:35.346Z,197.00
2018-11-25T21:00:05.535Z,217.33
2018-11-25T21:02:34.950Z,251.43
2018-11-25T21:05:05.597Z,211.53
2018-11-25T21:07:35.174Z,213.20
2018-11-25T21:10:05.532Z,201.83
2018-11-25T21:12:35.193Z,210.23
2018-11-25T21:15:06.100Z,208.50
2018-11-25T21:17:35.934Z,232.70
2018-11-25T21:20:14.170Z,262.07
2018-11-25T21:22:43.781Z,239.10
2018-11-25T21:25:13.789Z,237.07
2018-11-25T21:27:42.924Z,183.93
2018-11-25T21:30:14.177Z,214.50
2018-11-25T21:32:43.361Z,226.87
2018-11-25T21:35:14.634Z,219.17
2018-11-25T21:37:44.250Z,230.63
2018-11-25T21:40:15.887Z,253.40
2018-11-25T21:42:45.464Z,244.03
2018-11-25T21:45:15.226Z,235.30
2018-11-25T21:47:45.815Z,256.20
2018-11-25T21:50:22.598Z,230.90
2018-11-25T21:52:52.270Z,209.47
2018-11-25T21:55:21.958Z,217.30
2018-11-25T21:57:51.214Z,215.47
2018-11-25T22:00:25.394Z,209.70
2018-11-25T22:02:59.937Z,186.63
2018-11-25T22:05:30.431Z,211.03
2018-11-25T22:08:00.048Z,193.13
2018-11-25T22:10:29.601Z,196.93
2018-11-25T22:12:59.161Z,174.37
2018-11-25T22:15:28.737Z,195.33
2018-11-25T22:17:58.286Z,194.00
2018-11-25T22:20:27.874Z,179.70
2018-11-25T22:22:57.438Z,173.23
2018-11-25T22:25:26.967Z,167.73
2018-11-25T22:27:56.745Z,188.23
2018-11-25T22:30:26.318Z,185.57
2018-11-25T22:32:55.896Z,174.50
2018-11-25T22:35:38.586Z,187.07
2018-11-25T22:38:08.256Z,190.23
2018-11-25T22:40:37.794Z,178.73
2018-11-25T22:43:07.383Z,193.43
2018-11-25T22:45:36.529Z,185.53
2018-11-25T22:48:06.110Z,202.07
2018-11-25T22:50:35.670Z,185.67
2018-11-25T22:53:05.982Z,207.20
2018-11-25T22:55:35.622Z,182.10
2018-11-25T22:58:05.412Z,204.03
2018-11-25T23:00:36.305Z,177.30
2018-11-25T23:03:06.040Z,168.47
2018-11-25T23:06:50.338Z,181.40
2018-11-25T23:09:19.883Z,196.53
2018-11-25T23:11:49.429Z,152.40
2018-11-25T23:14:18.592Z,168.03
2018-11-25T23:16:48.054Z,152.43
2018-11-25T23:19:17.642Z,153.50
2018-11-25T23:21:47.201Z,157.30
2018-11-25T23:24:16.806Z,152.40
2018-11-25T23:26:46.353Z,154.40
2018-11-25T23:29:15.936Z,137.00
2018-11-25T23:31:45.506Z,137.57
2018-11-25T23:34:15.062Z,142.43
2018-11-25T23:36:44.667Z,139.53
2018-11-25T23:39:14.261Z,145.50
2018-11-25T23:41:43.799Z,133.90
2018-11-25T23:44:13.333Z,141.53
2018-11-25T23:46:42.873Z,140.53
2018-11-25T23:49:12.438Z,155.70
2018-11-25T23:51:42.026Z,151.57
2018-11-25T23:54:11.575Z,129.30
2018-11-25T23:56:41.181Z,156.20
2018-11-25T23:59:10.757Z,138.13
